Ana Sayfa
METAR-TAF:

METAR-TAF

Havaalanları :

Norfolk, Virginia, Amerika Birleşik Devletleri

Enlem: 36-56-01N, Boylam: 076-17-45W, yükseklik: 4 m

Güncel hava durumu gözlemi

Rapor saat 06:59 UTC de 24 dakika önce yapıldı.
Rüzgar batıdan 12 kt
Sıcaklık 6°C
Nem 61%
Basınç 1015 hPa
Görüş mesafesi: 16.1 km
11000 ft yükseklikte parçalı bulutlu

METAR: KNGU 290659Z 28012KT 10SM SCT110 06/M01 A2996 RMK AO2 SLP145 T00611006

Saat: 02:23 (07:23 UTC)

Tahmin

Ayın 29'si saat 07 UTC'den ayın 01'si saat 07 UTC'ye kadar geçerli Tahmin
Rüzgar batı/kuzeybatıdan 12 kt ve 19 kt'a kadar ani rüzgarlar
Görüş mesafesi 10 km veya daha fazla
5000 ft yükseklikte parçalı çok bulutlu
10000 ft yükseklikte çok bulutlu
Dönüşüyor
ayın 29'si saat 12 UTC'den ayın 29'si saat 14 UTC'ye kadar
5000 ft yükseklikte parçalı bulutlu
10000 ft yükseklikte parçalı çok bulutlu

TAF: KNGU 2907/0107 29012G19KT 9999 BKN050 OVC100 QNH2989INS BECMG 2912/2914 SCT050 BKN100 QNH2991INS T02/2913Z T07/2920Z FN00205

4.000'den fazla havaalanı için hava durumu gözlemleri ve tahminleri (METAR ve TAF raporları).

Kullanılabilir istasyonlar harita üzerinde sarı ve kırmızı noktalarla gösterilir.

İstasyonun adını görmek için fareyi noktanın üzerinde gezdirin.

Sonrasında hava gözlem ve tahminlerini görmek için tıklayın.

Haritayı değiştirmek için: yaklaştırmak için siyah artı işaretli yeşil düğmeye ve uzaklaştırmak için de eksi işaretli düğmeye hızla tıklayın; bitişik haritalar için yeşil okları kullanın.


METAR-TAF: